createdAt,value
2022-09-22T00:01:18.660Z,95188.53
2022-09-22T00:03:52.158Z,95181.31
2022-09-22T00:06:22.496Z,95174.78
2022-09-22T00:08:53.780Z,95175.75
2022-09-22T00:11:28.505Z,95180.31
2022-09-22T00:14:04.178Z,95177.31
2022-09-22T00:16:34.326Z,95181.69
2022-09-22T00:19:01.227Z,95168.13
2022-09-22T00:21:28.088Z,95135.41
2022-09-22T00:23:55.103Z,95183.28
2022-09-22T00:26:23.749Z,95181.50
2022-09-22T00:28:51.711Z,95174.09
2022-09-22T00:31:22.021Z,95184.00
2022-09-22T00:33:49.947Z,95168.66
2022-09-22T00:36:18.297Z,95178.03
2022-09-22T00:38:46.636Z,95184.41
2022-09-22T00:41:25.299Z,95178.09
2022-09-22T00:44:26.920Z,95184.41
2022-09-22T00:47:19.232Z,95170.22
2022-09-22T00:50:20.480Z,95177.56
2022-09-22T00:52:52.854Z,95175.53
2022-09-22T00:55:47.608Z,95174.31
2022-09-22T00:58:18.217Z,95164.16
2022-09-22T01:00:45.216Z,95164.13
2022-09-22T01:03:16.958Z,95159.13
2022-09-22T01:05:46.350Z,95169.44
2022-09-22T01:08:13.924Z,95154.84
2022-09-22T01:10:40.889Z,95166.03
2022-09-22T01:13:36.628Z,95145.50
2022-09-22T01:16:30.378Z,95168.13
2022-09-22T01:19:21.301Z,95167.84
2022-09-22T01:22:17.431Z,95147.25
2022-09-22T01:25:30.341Z,95161.50
2022-09-22T01:28:33.090Z,95169.88
2022-09-22T01:31:06.585Z,95170.63
2022-09-22T01:33:39.576Z,95174.16
2022-09-22T01:36:32.364Z,95169.38
2022-09-22T01:39:14.464Z,95166.94
2022-09-22T01:42:03.265Z,95170.13
2022-09-22T01:44:55.249Z,95163.34
2022-09-22T01:47:32.466Z,95171.72
2022-09-22T01:50:06.030Z,95168.50
2022-09-22T01:52:35.634Z,95166.56
2022-09-22T01:55:46.930Z,95164.59
2022-09-22T01:58:20.591Z,95155.25
2022-09-22T02:00:56.853Z,95153.66
2022-09-22T02:04:05.100Z,95160.84
2022-09-22T02:06:44.769Z,95163.72
2022-09-22T02:09:15.591Z,95163.47
2022-09-22T02:11:42.858Z,95165.44
2022-09-22T02:14:09.955Z,95158.66
2022-09-22T02:16:36.831Z,95161.84
2022-09-22T02:19:12.534Z,95155.84
2022-09-22T02:21:42.113Z,95166.97
2022-09-22T02:24:44.705Z,95156.78
2022-09-22T02:27:27.430Z,95160.06
2022-09-22T02:30:02.030Z,95155.03
2022-09-22T02:32:30.817Z,95146.94
2022-09-22T02:34:57.756Z,95153.28
2022-09-22T02:37:44.666Z,95157.53
2022-09-22T02:40:26.500Z,95154.69
2022-09-22T02:43:21.946Z,95145.47
2022-09-22T02:46:22.740Z,95141.28
2022-09-22T02:48:57.898Z,95156.81
2022-09-22T02:51:24.772Z,95157.50
2022-09-22T02:53:51.667Z,95137.38
2022-09-22T02:56:18.505Z,95153.38
2022-09-22T02:58:45.305Z,95145.09
2022-09-22T03:01:12.116Z,95158.41
2022-09-22T03:03:39.268Z,95162.97
2022-09-22T03:06:06.630Z,95147.09
2022-09-22T03:08:33.437Z,95151.44
2022-09-22T03:11:00.353Z,95153.41
2022-09-22T03:13:27.295Z,95160.22
2022-09-22T03:15:54.454Z,95170.50
2022-09-22T03:18:21.260Z,95168.28
2022-09-22T03:20:48.159Z,95165.88
2022-09-22T03:23:15.015Z,95151.34
2022-09-22T03:25:41.976Z,95167.25
2022-09-22T03:28:09.069Z,95167.94
2022-09-22T03:30:37.380Z,95173.13
2022-09-22T03:33:04.340Z,95165.66
2022-09-22T03:35:31.022Z,95168.22
2022-09-22T03:37:57.860Z,95167.16
2022-09-22T03:40:24.744Z,95169.88
2022-09-22T03:42:51.600Z,95152.56
2022-09-22T03:45:18.438Z,95162.63
2022-09-22T03:47:46.571Z,95174.69
2022-09-22T03:50:14.173Z,95167.31
2022-09-22T03:52:43.410Z,95151.94
2022-09-22T03:55:10.836Z,95182.41
2022-09-22T03:57:37.742Z,95169.75
2022-09-22T04:00:05.860Z,95188.81
2022-09-22T04:02:38.793Z,95185.97
2022-09-22T04:05:05.972Z,95162.31
2022-09-22T04:07:33.423Z,95173.97
2022-09-22T04:10:00.166Z,95180.03
2022-09-22T04:12:26.969Z,95185.97
2022-09-22T04:14:53.771Z,95183.69
2022-09-22T04:17:20.641Z,95183.81
2022-09-22T04:19:47.942Z,95182.66
2022-09-22T04:22:14.776Z,95179.25
2022-09-22T04:24:41.571Z,95165.31
2022-09-22T04:27:19.701Z,95172.28
2022-09-22T04:29:47.668Z,95171.63
2022-09-22T04:32:14.640Z,95172.38
2022-09-22T04:34:41.563Z,95177.97
2022-09-22T04:37:08.535Z,95176.59
2022-09-22T04:39:36.650Z,95167.66
2022-09-22T04:42:04.534Z,95186.56
2022-09-22T04:44:34.943Z,95175.81
2022-09-22T04:47:02.847Z,95173.38
2022-09-22T04:49:29.819Z,95178.44
2022-09-22T04:51:56.585Z,95180.63
2022-09-22T04:54:23.720Z,95189.19
2022-09-22T04:56:50.498Z,95173.75
2022-09-22T04:59:17.395Z,95173.97
2022-09-22T05:01:44.302Z,95196.91
2022-09-22T05:04:11.080Z,95180.41
2022-09-22T05:06:38.540Z,95171.38
2022-09-22T05:09:05.375Z,95189.13
2022-09-22T05:11:32.858Z,95189.31
2022-09-22T05:14:00.089Z,95192.69
2022-09-22T05:16:26.977Z,95199.97
2022-09-22T05:18:53.970Z,95188.84
2022-09-22T05:21:20.816Z,95204.34
2022-09-22T05:23:47.627Z,95172.25
2022-09-22T05:26:14.470Z,95193.94
2022-09-22T05:28:41.480Z,95202.47
2022-09-22T05:31:08.390Z,95201.44
2022-09-22T05:33:35.264Z,95197.97
2022-09-22T05:36:02.392Z,95198.09
2022-09-22T05:38:29.895Z,95209.09
2022-09-22T05:40:56.682Z,95178.34
2022-09-22T05:43:23.487Z,95188.97
2022-09-22T05:45:50.329Z,95194.47
2022-09-22T05:48:17.223Z,95188.53
2022-09-22T05:50:45.514Z,95197.41
2022-09-22T05:53:13.303Z,95192.72
2022-09-22T05:55:41.154Z,95204.25
2022-09-22T05:58:11.852Z,95199.09
2022-09-22T06:00:40.551Z,95199.50
2022-09-22T06:03:07.687Z,95199.16
2022-09-22T06:05:37.410Z,95202.16
2022-09-22T06:08:06.516Z,95197.59
2022-09-22T06:10:35.465Z,95199.59
2022-09-22T06:13:04.559Z,95187.66
2022-09-22T06:15:33.988Z,95186.63
2022-09-22T06:18:01.355Z,95201.56
2022-09-22T06:20:28.243Z,95192.41
2022-09-22T06:22:56.679Z,95156.97
2022-09-22T06:25:23.984Z,95202.38
2022-09-22T06:28:05.280Z,95207.56
2022-09-22T06:30:33.347Z,95199.34
2022-09-22T06:33:00.314Z,95187.22
2022-09-22T06:35:35.399Z,95189.94
2022-09-22T06:38:02.422Z,95199.47
2022-09-22T06:40:29.318Z,95200.63
2022-09-22T06:43:07.552Z,95196.97
2022-09-22T06:45:34.556Z,95207.47
2022-09-22T06:48:02.786Z,95191.69
2022-09-22T06:50:32.841Z,95203.56
2022-09-22T06:53:04.312Z,95206.16
2022-09-22T06:55:31.943Z,95186.47
2022-09-22T06:58:00.388Z,95204.00
2022-09-22T07:00:34.572Z,95198.28
2022-09-22T07:03:20.671Z,95182.09
2022-09-22T07:06:01.123Z,95194.69
2022-09-22T07:08:30.032Z,95200.97
2022-09-22T07:11:02.326Z,95193.66
2022-09-22T07:13:31.104Z,95194.69
2022-09-22T07:16:08.001Z,95200.72
2022-09-22T07:18:36.106Z,95205.00
2022-09-22T07:21:11.894Z,95202.97
2022-09-22T07:23:39.511Z,95185.66
2022-09-22T07:26:08.501Z,95193.16
2022-09-22T07:28:36.724Z,95187.28
2022-09-22T07:31:14.623Z,95188.84
2022-09-22T07:33:43.531Z,95182.56
2022-09-22T07:36:12.221Z,95195.91
2022-09-22T07:38:40.529Z,95197.53
2022-09-22T07:41:12.133Z,95192.63
2022-09-22T07:43:40.428Z,95183.31
2022-09-22T07:46:08.148Z,95199.34
2022-09-22T07:48:37.470Z,95198.34
2022-09-22T07:51:16.473Z,95203.38
2022-09-22T07:53:45.925Z,95195.47
2022-09-22T07:56:15.543Z,95198.59
2022-09-22T07:58:48.146Z,95177.00
2022-09-22T08:01:14.985Z,95191.09
2022-09-22T08:03:42.030Z,95197.81
2022-09-22T08:06:11.212Z,95168.44
2022-09-22T08:08:40.088Z,95174.31
2022-09-22T08:11:08.848Z,95182.97
2022-09-22T08:13:37.028Z,95180.47
2022-09-22T08:16:05.406Z,95167.53
2022-09-22T08:18:36.276Z,95187.94
2022-09-22T08:21:03.307Z,95183.50
2022-09-22T08:23:31.586Z,95180.44
2022-09-22T08:26:06.763Z,95157.56
2022-09-22T08:28:34.342Z,95170.78
2022-09-22T08:31:02.170Z,95173.81
2022-09-22T08:33:32.316Z,95179.59
2022-09-22T08:36:04.003Z,95178.38
2022-09-22T08:38:33.841Z,95177.47
2022-09-22T08:41:37.955Z,95170.97
2022-09-22T08:44:28.752Z,95172.88
2022-09-22T08:47:00.893Z,95161.47
2022-09-22T08:49:57.046Z,95164.28
2022-09-22T08:52:41.237Z,95169.91
2022-09-22T08:55:20.358Z,95158.56
2022-09-22T08:57:59.463Z,95165.34
2022-09-22T09:00:32.863Z,95166.31
2022-09-22T09:03:41.145Z,95161.69
2022-09-22T09:06:34.670Z,95159.22
2022-09-22T09:09:10.513Z,95166.25
2022-09-22T09:12:06.860Z,95157.97
2022-09-22T09:14:58.554Z,95161.13
2022-09-22T09:17:29.624Z,95152.16
2022-09-22T09:20:12.732Z,95153.78
2022-09-22T09:22:48.876Z,95164.50
2022-09-22T09:25:24.304Z,95159.25
2022-09-22T09:28:00.386Z,95149.75
2022-09-22T09:30:32.357Z,95154.44
2022-09-22T09:33:02.661Z,95159.78
2022-09-22T09:35:45.332Z,95164.00
2022-09-22T09:38:15.913Z,95162.47
2022-09-22T09:40:49.532Z,95137.34
2022-09-22T09:43:16.713Z,95148.22
2022-09-22T09:46:02.185Z,95149.59
2022-09-22T09:49:05.630Z,95151.03
2022-09-22T09:51:40.385Z,95147.94
2022-09-22T09:54:13.155Z,95144.00
2022-09-22T09:57:27.666Z,95133.78
2022-09-22T10:00:33.689Z,95131.75
2022-09-22T10:03:11.423Z,95144.91
2022-09-22T10:05:38.179Z,95131.78
2022-09-22T10:08:15.501Z,95129.78
2022-09-22T10:10:45.618Z,95131.81
2022-09-22T10:13:15.982Z,95137.09
2022-09-22T10:16:01.972Z,95143.47
2022-09-22T10:18:57.347Z,95118.69
2022-09-22T10:21:26.804Z,95133.13
2022-09-22T10:23:55.847Z,95130.19
2022-09-22T10:26:31.148Z,95135.66
2022-09-22T10:29:13.028Z,95130.88
2022-09-22T10:31:41.888Z,95132.25
2022-09-22T10:34:31.379Z,95099.38
2022-09-22T10:37:00.837Z,95128.31
2022-09-22T10:39:36.886Z,95129.97
2022-09-22T10:42:12.661Z,95123.13
2022-09-22T10:44:42.828Z,95110.84
2022-09-22T10:47:32.974Z,95130.88
2022-09-22T10:50:35.910Z,95113.06
2022-09-22T10:53:31.597Z,95117.47
2022-09-22T10:56:05.739Z,95114.41
2022-09-22T10:58:32.372Z,95111.28
2022-09-22T11:01:28.082Z,95115.56
2022-09-22T11:04:35.421Z,95114.50
2022-09-22T11:07:42.413Z,95121.34
2022-09-22T11:10:57.585Z,95121.34
2022-09-22T11:13:44.129Z,95116.56
2022-09-22T11:16:55.015Z,95113.69
2022-09-22T11:19:46.179Z,95117.13
2022-09-22T11:22:30.115Z,95122.06
2022-09-22T11:24:59.869Z,95119.16
2022-09-22T11:27:53.582Z,95100.63
2022-09-22T11:30:22.925Z,95099.94
2022-09-22T11:33:02.302Z,95114.81
2022-09-22T11:36:04.394Z,95108.44
2022-09-22T11:39:00.212Z,95099.28
2022-09-22T11:41:59.079Z,95103.63
2022-09-22T11:44:50.737Z,95095.06
2022-09-22T11:47:20.341Z,95092.84
2022-09-22T11:50:05.338Z,95094.44
2022-09-22T11:52:51.027Z,95087.97
2022-09-22T11:55:47.150Z,95093.59
2022-09-22T11:58:20.717Z,95094.00
2022-09-22T12:00:54.951Z,95097.59
2022-09-22T12:03:32.239Z,95090.50
2022-09-22T12:06:05.330Z,95085.00
2022-09-22T12:08:38.427Z,95091.16
2022-09-22T12:11:08.133Z,95091.78
2022-09-22T12:13:37.736Z,95088.06
2022-09-22T12:16:19.843Z,95092.25
2022-09-22T12:19:20.140Z,95081.94
2022-09-22T12:21:50.066Z,95084.78
2022-09-22T12:24:17.028Z,95081.75
2022-09-22T12:26:46.361Z,95083.56
2022-09-22T12:29:19.318Z,95093.59
2022-09-22T12:31:49.158Z,95086.81
2022-09-22T12:34:21.146Z,95088.41
2022-09-22T12:36:52.685Z,95051.31
2022-09-22T12:39:32.818Z,95064.34
2022-09-22T12:42:02.426Z,95082.22
2022-09-22T12:44:34.652Z,95064.00
2022-09-22T12:47:05.878Z,95072.44
2022-09-22T12:49:33.473Z,95076.56
2022-09-22T12:52:00.690Z,95065.47
2022-09-22T12:54:35.076Z,95065.00
2022-09-22T12:57:08.887Z,95081.94
2022-09-22T12:59:36.794Z,95070.25
2022-09-22T13:02:15.967Z,95075.56
2022-09-22T13:04:55.409Z,95070.16
2022-09-22T13:07:41.230Z,95071.69
2022-09-22T13:10:23.474Z,95070.38
2022-09-22T13:13:11.260Z,95072.53
2022-09-22T13:15:51.131Z,95070.69
2022-09-22T13:18:26.913Z,95074.06
2022-09-22T13:20:53.694Z,95075.63
2022-09-22T13:23:21.712Z,95076.56
2022-09-22T13:25:49.583Z,95069.78
2022-09-22T13:28:25.151Z,95049.97
2022-09-22T13:31:06.285Z,95051.53
2022-09-22T13:33:36.097Z,95064.28
2022-09-22T13:36:15.675Z,95042.53
2022-09-22T13:38:51.264Z,95056.34
2022-09-22T13:41:24.095Z,95037.34
2022-09-22T13:43:58.018Z,95058.78
2022-09-22T13:46:41.369Z,95069.66
2022-09-22T13:49:16.975Z,95069.75
2022-09-22T13:51:50.529Z,95065.56
2022-09-22T13:54:25.022Z,95065.19
2022-09-22T13:56:52.297Z,95046.38
2022-09-22T13:59:19.131Z,95058.47
2022-09-22T14:01:53.601Z,95057.06
2022-09-22T14:04:25.662Z,95061.03
2022-09-22T14:06:57.243Z,95063.31
2022-09-22T14:09:25.787Z,95059.88
2022-09-22T14:11:53.824Z,95065.72
2022-09-22T14:14:25.888Z,95066.06
2022-09-22T14:16:57.076Z,95071.44
2022-09-22T14:19:35.652Z,95052.94
2022-09-22T14:22:14.208Z,95057.56
2022-09-22T14:24:47.156Z,95064.59
2022-09-22T14:27:20.702Z,95071.28
2022-09-22T14:29:50.998Z,95058.72
2022-09-22T14:32:18.158Z,95069.59
2022-09-22T14:34:49.427Z,95066.38
2022-09-22T14:37:29.274Z,95071.34
2022-09-22T14:39:58.009Z,95070.72
2022-09-22T14:42:30.717Z,95060.88
2022-09-22T14:45:35.567Z,95073.50
2022-09-22T14:48:19.646Z,95077.97
2022-09-22T14:51:02.051Z,95060.53
2022-09-22T14:53:35.007Z,95069.88
2022-09-22T14:56:11.508Z,95048.75
2022-09-22T14:58:43.549Z,95072.44
2022-09-22T15:01:50.514Z,95071.38
2022-09-22T15:04:32.805Z,95050.25
2022-09-22T15:06:59.505Z,95071.38
2022-09-22T15:09:37.678Z,95063.47
2022-09-22T15:12:05.487Z,95070.31
2022-09-22T15:14:42.029Z,95080.28
2022-09-22T15:17:59.277Z,95087.81
2022-09-22T15:20:46.211Z,95083.34
2022-09-22T15:23:28.571Z,95084.44
2022-09-22T15:25:56.455Z,95086.50
2022-09-22T15:28:25.208Z,95088.34
2022-09-22T15:30:52.968Z,95092.75
2022-09-22T15:33:21.449Z,95091.09
2022-09-22T15:35:53.097Z,95100.66
2022-09-22T15:38:31.456Z,95103.13
2022-09-22T15:40:59.731Z,95101.53
2022-09-22T15:43:31.021Z,95102.81
2022-09-22T15:46:04.434Z,95110.63
2022-09-22T15:48:40.127Z,95103.00
2022-09-22T15:51:12.907Z,95103.94
2022-09-22T15:53:42.700Z,95103.91
2022-09-22T15:56:19.315Z,95110.88
2022-09-22T15:58:55.872Z,95105.31
2022-09-22T16:01:25.065Z,95107.81
2022-09-22T16:04:05.593Z,95113.50
2022-09-22T16:06:32.758Z,95104.50
2022-09-22T16:08:59.620Z,95099.09
2022-09-22T16:11:30.379Z,95108.47
2022-09-22T16:14:03.583Z,95101.28
2022-09-22T16:16:33.025Z,95102.44
2022-09-22T16:19:00.533Z,95100.22
2022-09-22T16:21:29.843Z,95100.09
2022-09-22T16:24:03.429Z,95102.03
2022-09-22T16:26:31.915Z,95102.34
2022-09-22T16:28:59.541Z,95106.31
2022-09-22T16:31:27.206Z,95115.50
2022-09-22T16:34:04.830Z,95101.25
2022-09-22T16:36:34.031Z,95117.22
2022-09-22T16:39:02.032Z,95125.41
2022-09-22T16:41:33.662Z,95123.19
2022-09-22T16:44:01.452Z,95117.75
2022-09-22T16:46:34.748Z,95122.03
2022-09-22T16:49:07.651Z,95122.03
2022-09-22T16:51:37.006Z,95114.88
2022-09-22T16:54:05.738Z,95118.97
2022-09-22T16:56:35.501Z,95123.09
2022-09-22T16:59:03.172Z,95117.75
2022-09-22T17:01:31.772Z,95104.38
2022-09-22T17:03:59.175Z,95109.97
2022-09-22T17:06:26.698Z,95118.00
2022-09-22T17:08:57.162Z,95107.00
2022-09-22T17:11:34.661Z,95129.47
2022-09-22T17:14:05.578Z,95119.94
2022-09-22T17:16:38.581Z,95133.66
2022-09-22T17:19:07.911Z,95129.56
2022-09-22T17:21:37.261Z,95125.81
2022-09-22T17:24:05.816Z,95133.28
2022-09-22T17:26:47.361Z,95134.84
2022-09-22T17:29:18.814Z,95131.09
2022-09-22T17:31:49.343Z,95146.72
2022-09-22T17:34:16.137Z,95138.88
2022-09-22T17:36:42.909Z,95151.34
2022-09-22T17:39:10.733Z,95155.84
2022-09-22T17:41:45.495Z,95148.06
2022-09-22T17:44:13.830Z,95155.44
2022-09-22T17:47:00.560Z,95158.63
2022-09-22T17:49:46.373Z,95156.69
2022-09-22T17:52:34.395Z,95161.25
2022-09-22T17:55:14.318Z,95155.75
2022-09-22T17:57:43.864Z,95157.84
2022-09-22T18:00:16.912Z,95154.31
2022-09-22T18:02:43.932Z,95153.16
2022-09-22T18:05:13.676Z,95154.88
2022-09-22T18:07:42.056Z,95164.50
2022-09-22T18:10:11.114Z,95155.75
2022-09-22T18:12:37.931Z,95145.31
2022-09-22T18:15:07.209Z,95137.66
2022-09-22T18:17:42.955Z,95161.34
2022-09-22T18:20:15.154Z,95174.78
2022-09-22T18:22:48.106Z,95180.19
2022-09-22T18:25:19.496Z,95178.06
2022-09-22T18:27:48.638Z,95178.16
2022-09-22T18:30:17.672Z,95181.41
2022-09-22T18:32:44.461Z,95191.41
2022-09-22T18:35:12.985Z,95182.72
2022-09-22T18:37:40.377Z,95186.75
2022-09-22T18:40:08.068Z,95185.13
2022-09-22T18:42:36.779Z,95195.91
2022-09-22T18:45:04.117Z,95175.59
2022-09-22T18:47:30.857Z,95183.13
2022-09-22T18:49:59.280Z,95191.09
2022-09-22T18:52:26.274Z,95184.38
2022-09-22T18:54:54.220Z,95188.41
2022-09-22T18:57:23.112Z,95190.84
2022-09-22T18:59:51.124Z,95182.50
2022-09-22T19:02:21.687Z,95181.91
2022-09-22T19:04:49.250Z,95185.34
2022-09-22T19:07:38.946Z,95167.81
2022-09-22T19:10:11.931Z,95171.84
2022-09-22T19:12:41.903Z,95175.44
2022-09-22T19:15:16.737Z,95154.34
2022-09-22T19:17:45.527Z,95171.06
2022-09-22T19:20:21.379Z,95171.91
2022-09-22T19:22:50.327Z,95164.72
2022-09-22T19:25:18.052Z,95164.94
2022-09-22T19:27:44.897Z,95167.53
2022-09-22T19:30:12.302Z,95169.97
2022-09-22T19:32:40.941Z,95183.91
2022-09-22T19:35:08.708Z,95182.31
2022-09-22T19:37:36.501Z,95184.69
2022-09-22T19:40:06.289Z,95181.31
2022-09-22T19:42:39.986Z,95185.09
2022-09-22T19:45:08.527Z,95197.06
2022-09-22T19:47:35.338Z,95199.03
2022-09-22T19:50:02.277Z,95202.19
2022-09-22T19:52:29.636Z,95194.59
2022-09-22T19:54:56.903Z,95188.25
2022-09-22T19:57:24.168Z,95194.19
2022-09-22T19:59:51.025Z,95200.16
2022-09-22T20:02:20.832Z,95204.91
2022-09-22T20:04:47.658Z,95205.91
2022-09-22T20:07:14.663Z,95203.06
2022-09-22T20:09:41.726Z,95201.91
2022-09-22T20:12:08.548Z,95198.53
2022-09-22T20:14:35.553Z,95208.34
2022-09-22T20:17:06.797Z,95196.03
2022-09-22T20:19:36.109Z,95190.06
2022-09-22T20:22:27.758Z,95218.91
2022-09-22T20:24:57.504Z,95222.31
2022-09-22T20:27:29.628Z,95217.72
2022-09-22T20:29:57.619Z,95205.38
2022-09-22T20:32:34.737Z,95204.78
2022-09-22T20:35:01.799Z,95221.31
2022-09-22T20:37:30.102Z,95225.28
2022-09-22T20:39:57.550Z,95227.09
2022-09-22T20:42:24.637Z,95219.69
2022-09-22T20:44:51.626Z,95227.09
2022-09-22T20:47:21.291Z,95229.31
2022-09-22T20:49:51.796Z,95218.16
2022-09-22T20:52:20.230Z,95232.94
2022-09-22T20:54:47.999Z,95227.34
2022-09-22T20:57:15.407Z,95223.41
2022-09-22T20:59:45.249Z,95212.25
2022-09-22T21:02:15.257Z,95196.31
2022-09-22T21:04:42.564Z,95227.81
2022-09-22T21:07:11.281Z,95217.25
2022-09-22T21:09:56.680Z,95213.47
2022-09-22T21:12:30.055Z,95224.03
2022-09-22T21:14:58.114Z,95229.81
2022-09-22T21:17:25.094Z,95231.44
2022-09-22T21:19:51.854Z,95228.44
2022-09-22T21:22:21.254Z,95237.44
2022-09-22T21:24:48.833Z,95226.69
2022-09-22T21:27:15.779Z,95224.28
2022-09-22T21:29:42.838Z,95234.06
2022-09-22T21:32:09.880Z,95239.44
2022-09-22T21:34:36.795Z,95219.13
2022-09-22T21:37:04.637Z,95238.63
2022-09-22T21:39:31.361Z,95239.84
2022-09-22T21:41:58.406Z,95249.03
2022-09-22T21:44:25.153Z,95241.06
2022-09-22T21:46:51.929Z,95237.47
2022-09-22T21:49:18.750Z,95239.84
2022-09-22T21:51:47.442Z,95239.44
2022-09-22T21:54:18.703Z,95243.44
2022-09-22T21:56:46.376Z,95235.47
2022-09-22T21:59:14.127Z,95225.88
2022-09-22T22:01:42.228Z,95239.41
2022-09-22T22:04:10.407Z,95231.47
2022-09-22T22:06:40.269Z,95227.69
2022-09-22T22:09:15.243Z,95231.06
2022-09-22T22:11:43.639Z,95235.84
2022-09-22T22:14:12.490Z,95233.84
2022-09-22T22:16:47.574Z,95230.50
2022-09-22T22:19:17.752Z,95220.72
2022-09-22T22:21:45.281Z,95219.91
2022-09-22T22:24:32.991Z,95221.72
2022-09-22T22:27:09.744Z,95220.72
2022-09-22T22:29:38.513Z,95223.53
2022-09-22T22:32:08.834Z,95224.31
2022-09-22T22:34:35.735Z,95221.91
2022-09-22T22:37:03.997Z,95217.53
2022-09-22T22:39:30.873Z,95222.69
2022-09-22T22:41:57.668Z,95209.16
2022-09-22T22:44:24.369Z,95219.13
2022-09-22T22:46:51.263Z,95212.13
2022-09-22T22:49:18.124Z,95214.72
2022-09-22T22:51:44.956Z,95207.16
2022-09-22T22:54:13.336Z,95206.94
2022-09-22T22:56:42.364Z,95163.50
2022-09-22T22:59:10.457Z,95194.75
2022-09-22T23:01:37.604Z,95217.88
2022-09-22T23:04:06.782Z,95214.28
2022-09-22T23:06:36.322Z,95214.28
2022-09-22T23:09:04.408Z,95210.50
2022-09-22T23:11:36.005Z,95201.56
2022-09-22T23:14:05.400Z,95208.72
2022-09-22T23:16:43.480Z,95217.81
2022-09-22T23:19:13.259Z,95217.97
2022-09-22T23:21:40.656Z,95194.84
2022-09-22T23:24:08.408Z,95209.00
2022-09-22T23:26:37.293Z,95211.59
2022-09-22T23:29:05.078Z,95213.97
2022-09-22T23:31:32.242Z,95202.19
2022-09-22T23:33:59.270Z,95208.41
2022-09-22T23:36:28.216Z,95211.19
2022-09-22T23:38:56.942Z,95208.00
2022-09-22T23:41:24.182Z,95205.94
2022-09-22T23:43:51.139Z,95193.53
2022-09-22T23:46:18.242Z,95203.47
2022-09-22T23:48:45.199Z,95207.78
2022-09-22T23:51:12.011Z,95207.28
2022-09-22T23:53:39.272Z,95200.59
2022-09-22T23:56:07.176Z,95196.75
2022-09-22T23:58:34.697Z,95194.28
